createdAt,value
2023-02-18T00:00:25.375Z,72.65
2023-02-18T00:01:30.155Z,72.54
2023-02-18T00:02:33.806Z,72.34
2023-02-18T00:03:35.751Z,72.10
2023-02-18T00:04:40.088Z,72.17
2023-02-18T00:05:42.017Z,72.75
2023-02-18T00:06:45.003Z,72.09
2023-02-18T00:07:47.024Z,73.13
2023-02-18T00:08:50.806Z,72.34
2023-02-18T00:09:53.709Z,72.85
2023-02-18T00:10:55.632Z,72.39
2023-02-18T00:11:58.658Z,72.67
2023-02-18T00:13:01.602Z,73.09
2023-02-18T00:14:06.980Z,72.98
2023-02-18T00:15:09.973Z,72.57
2023-02-18T00:16:13.887Z,72.82
2023-02-18T00:17:15.913Z,72.95
2023-02-18T00:18:18.855Z,72.32
2023-02-18T00:19:21.181Z,72.59
2023-02-18T00:20:25.446Z,72.14
2023-02-18T00:21:27.770Z,72.31
2023-02-18T00:22:30.716Z,72.72
2023-02-18T00:23:33.802Z,72.52
2023-02-18T00:24:36.703Z,73.29
2023-02-18T00:25:38.597Z,73.42
2023-02-18T00:26:42.529Z,72.88
2023-02-18T00:27:44.427Z,72.85
2023-02-18T00:28:49.152Z,73.08
2023-02-18T00:29:51.119Z,72.26
2023-02-18T00:30:54.166Z,72.90
2023-02-18T00:31:56.494Z,73.37
2023-02-18T00:32:59.505Z,73.57
2023-02-18T00:34:02.686Z,73.33
2023-02-18T00:35:05.889Z,73.47
2023-02-18T00:36:13.701Z,73.00
2023-02-18T00:37:16.737Z,73.51
2023-02-18T00:38:18.747Z,73.09
2023-02-18T00:39:21.623Z,73.63
2023-02-18T00:40:23.548Z,73.57
2023-02-18T00:41:28.270Z,72.85
2023-02-18T00:42:30.182Z,72.82
2023-02-18T00:43:33.300Z,73.78
2023-02-18T00:44:35.187Z,73.73
2023-02-18T00:45:38.105Z,73.83
2023-02-18T00:46:41.722Z,72.99
2023-02-18T00:47:43.767Z,73.67
2023-02-18T00:48:47.448Z,73.58
2023-02-18T00:49:49.371Z,73.27
2023-02-18T00:50:52.346Z,73.15
2023-02-18T00:51:55.646Z,72.77
2023-02-18T00:52:58.604Z,72.92
2023-02-18T00:54:01.890Z,73.26
2023-02-18T00:55:04.357Z,73.19
2023-02-18T00:56:09.075Z,73.13
2023-02-18T00:57:12.175Z,73.98
2023-02-18T00:58:14.754Z,73.54
2023-02-18T00:59:18.824Z,73.95
2023-02-18T01:00:21.104Z,73.49
2023-02-18T01:01:24.373Z,73.32
2023-02-18T01:02:26.465Z,73.36
2023-02-18T01:03:29.568Z,73.69
2023-02-18T01:04:32.554Z,73.85
2023-02-18T01:05:35.270Z,74.15
2023-02-18T01:06:38.433Z,73.25
2023-02-18T01:07:41.809Z,74.03
2023-02-18T01:08:44.850Z,73.59
2023-02-18T01:09:46.830Z,73.81
2023-02-18T01:10:53.463Z,74.29
2023-02-18T01:11:55.479Z,73.84
2023-02-18T01:12:58.393Z,74.00
2023-02-18T01:14:00.392Z,73.86
2023-02-18T01:15:07.286Z,73.66
2023-02-18T01:16:11.243Z,73.88
2023-02-18T01:17:13.569Z,73.82
2023-02-18T01:18:16.797Z,73.18
2023-02-18T01:19:18.705Z,73.42
2023-02-18T01:20:21.822Z,73.38
2023-02-18T01:21:23.738Z,74.04
2023-02-18T01:22:28.326Z,74.30
2023-02-18T01:23:31.670Z,74.17
2023-02-18T01:24:34.609Z,74.10
2023-02-18T01:25:37.287Z,73.54
2023-02-18T01:26:40.192Z,74.13
2023-02-18T01:27:43.414Z,73.38
2023-02-18T01:28:46.373Z,73.70
2023-02-18T01:29:48.294Z,73.60
2023-02-18T01:30:52.228Z,74.05
2023-02-18T01:31:55.284Z,74.09
2023-02-18T01:32:58.318Z,74.56
2023-02-18T01:34:01.224Z,73.83
2023-02-18T01:35:06.046Z,73.55
2023-02-18T01:36:10.706Z,74.60
2023-02-18T01:37:13.291Z,74.58
2023-02-18T01:38:16.435Z,74.08
2023-02-18T01:39:20.738Z,73.68
2023-02-18T01:40:26.385Z,74.13
2023-02-18T01:41:28.598Z,73.65
2023-02-18T01:42:31.658Z,74.73
2023-02-18T01:43:33.718Z,74.75
2023-02-18T01:44:36.880Z,73.84
2023-02-18T01:46:05.057Z,74.27
2023-02-18T01:47:07.985Z,73.97
2023-02-18T01:48:13.852Z,75.19
2023-02-18T01:49:20.590Z,74.86
2023-02-18T01:50:22.626Z,74.69
2023-02-18T01:51:29.026Z,74.22
2023-02-18T01:52:33.045Z,74.17
2023-02-18T01:53:39.449Z,74.68
2023-02-18T01:54:47.945Z,74.06
2023-02-18T01:55:50.971Z,75.11
2023-02-18T01:56:58.538Z,74.36
2023-02-18T01:58:00.989Z,74.62
2023-02-18T01:59:10.710Z,74.27
2023-02-18T02:00:16.117Z,75.48
2023-02-18T02:01:22.678Z,74.48
2023-02-18T02:02:28.204Z,74.95
2023-02-18T02:03:31.274Z,75.04
2023-02-18T02:04:33.355Z,75.29
2023-02-18T02:05:36.568Z,75.18
2023-02-18T02:06:39.775Z,74.71
2023-02-18T02:07:43.209Z,75.47
2023-02-18T02:08:48.547Z,74.95
2023-02-18T02:09:54.566Z,75.53
2023-02-18T02:11:22.256Z,75.13
2023-02-18T02:12:48.426Z,74.96
2023-02-18T02:14:15.194Z,74.58
2023-02-18T02:15:32.072Z,75.15
2023-02-18T02:16:41.468Z,75.09
2023-02-18T02:17:56.856Z,75.72
2023-02-18T02:19:11.116Z,74.95
2023-02-18T02:20:58.138Z,75.68
2023-02-18T02:22:35.885Z,75.82
2023-02-18T02:24:04.889Z,74.64
2023-02-18T02:25:20.633Z,75.08
2023-02-18T02:26:58.645Z,74.79
2023-02-18T02:28:31.344Z,75.29
2023-02-18T02:30:10.438Z,74.79
2023-02-18T02:31:43.754Z,75.69
2023-02-18T02:33:20.282Z,75.58
2023-02-18T02:34:53.795Z,75.45
2023-02-18T02:36:03.342Z,75.35
2023-02-18T02:37:13.568Z,74.68
2023-02-18T02:38:21.580Z,75.35
2023-02-18T02:39:31.612Z,75.67
2023-02-18T02:40:39.443Z,75.09
2023-02-18T02:41:52.174Z,74.90
2023-02-18T02:43:06.670Z,75.81
2023-02-18T02:44:20.183Z,74.91
2023-02-18T02:45:30.988Z,75.56
2023-02-18T02:46:39.171Z,75.82
2023-02-18T02:47:50.881Z,75.09
2023-02-18T02:49:03.038Z,75.74
2023-02-18T02:50:11.936Z,75.47
2023-02-18T02:51:22.370Z,75.17
2023-02-18T02:52:31.516Z,75.96
2023-02-18T02:53:35.863Z,74.77
2023-02-18T02:54:39.018Z,74.95
2023-02-18T02:55:41.100Z,76.08
2023-02-18T02:56:44.719Z,75.40
2023-02-18T02:57:50.771Z,75.57
2023-02-18T02:59:03.579Z,75.93
2023-02-18T03:00:14.825Z,75.48
2023-02-18T03:01:30.563Z,75.93
2023-02-18T03:02:44.323Z,76.20
2023-02-18T03:04:10.899Z,75.25
2023-02-18T03:05:24.369Z,75.41
2023-02-18T03:06:47.781Z,75.49
2023-02-18T03:08:09.835Z,76.26
2023-02-18T03:09:21.371Z,76.31
2023-02-18T03:10:40.949Z,75.83
2023-02-18T03:11:50.416Z,76.59
2023-02-18T03:13:02.820Z,75.35
2023-02-18T03:14:17.086Z,76.05
2023-02-18T03:15:24.583Z,75.82
2023-02-18T03:16:31.899Z,76.86
2023-02-18T03:17:38.378Z,76.07
2023-02-18T03:18:44.647Z,76.42
2023-02-18T03:19:53.156Z,75.26
2023-02-18T03:21:02.306Z,76.30
2023-02-18T03:22:07.271Z,75.91
2023-02-18T03:23:16.936Z,76.50
2023-02-18T03:24:25.362Z,76.18
2023-02-18T03:25:29.542Z,76.31
2023-02-18T03:26:34.775Z,76.76
2023-02-18T03:27:44.940Z,75.99
2023-02-18T03:28:50.780Z,75.97
2023-02-18T03:29:58.727Z,76.21
2023-02-18T03:31:04.545Z,76.66
2023-02-18T03:32:10.966Z,76.70
2023-02-18T03:33:17.219Z,76.05
2023-02-18T03:34:26.715Z,76.33
2023-02-18T03:35:28.983Z,76.12
2023-02-18T03:36:35.576Z,75.81
2023-02-18T03:37:43.676Z,76.55
2023-02-18T03:38:52.099Z,76.88
2023-02-18T03:40:00.534Z,76.26
2023-02-18T03:41:03.772Z,76.67
2023-02-18T03:42:07.445Z,76.52
2023-02-18T03:43:10.711Z,75.70
2023-02-18T03:44:13.824Z,75.85
2023-02-18T03:45:16.710Z,75.95
2023-02-18T03:46:18.881Z,75.75
2023-02-18T03:47:22.243Z,76.02
2023-02-18T03:48:24.320Z,76.48
2023-02-18T03:49:28.701Z,76.87
2023-02-18T03:50:30.712Z,76.29
2023-02-18T03:51:34.940Z,76.12
2023-02-18T03:52:37.066Z,76.02
2023-02-18T03:53:41.442Z,76.13
2023-02-18T03:54:43.410Z,75.98
2023-02-18T03:55:46.325Z,76.64
2023-02-18T03:56:48.510Z,76.97
2023-02-18T03:57:51.481Z,76.27
2023-02-18T03:58:53.436Z,76.71
2023-02-18T03:59:56.301Z,76.12
2023-02-18T04:00:59.544Z,76.97
2023-02-18T04:02:02.730Z,76.89
2023-02-18T04:03:04.842Z,75.84
2023-02-18T04:04:07.841Z,76.94
2023-02-18T04:05:10.108Z,76.86
2023-02-18T04:06:13.247Z,76.72
2023-02-18T04:07:16.635Z,75.96
2023-02-18T04:08:19.472Z,76.72
2023-02-18T04:09:21.429Z,76.43
2023-02-18T04:10:24.451Z,76.83
2023-02-18T04:11:26.405Z,77.32
2023-02-18T04:12:29.321Z,76.94
2023-02-18T04:13:31.508Z,76.66
2023-02-18T04:14:34.429Z,77.22
2023-02-18T04:15:37.056Z,76.68
2023-02-18T04:16:39.988Z,77.29
2023-02-18T04:17:42.070Z,76.80
2023-02-18T04:18:44.994Z,75.89
2023-02-18T04:19:46.946Z,76.88
2023-02-18T04:20:49.865Z,76.56
2023-02-18T04:21:52.461Z,76.16
2023-02-18T04:22:56.842Z,76.88
2023-02-18T04:23:58.921Z,76.29
2023-02-18T04:25:01.808Z,76.37
2023-02-18T04:26:04.252Z,76.95
2023-02-18T04:27:07.269Z,76.34
2023-02-18T04:28:13.278Z,76.53
2023-02-18T04:29:16.538Z,76.23
2023-02-18T04:30:19.347Z,76.19
2023-02-18T04:31:22.684Z,77.16
2023-02-18T04:32:24.658Z,76.94
2023-02-18T04:33:27.558Z,77.18
2023-02-18T04:34:29.461Z,77.33
2023-02-18T04:35:32.427Z,76.87
2023-02-18T04:36:34.581Z,77.28
2023-02-18T04:37:38.285Z,77.13
2023-02-18T04:38:43.113Z,76.21
2023-02-18T04:39:46.140Z,76.32
2023-02-18T04:40:48.009Z,76.04
2023-02-18T04:41:50.910Z,76.20
2023-02-18T04:42:52.768Z,76.19
2023-02-18T04:43:55.782Z,76.89
2023-02-18T04:44:57.736Z,76.95
2023-02-18T04:46:00.664Z,76.73
2023-02-18T04:47:02.680Z,76.82
2023-02-18T04:48:06.354Z,76.12
2023-02-18T04:49:08.331Z,76.50
2023-02-18T04:50:12.119Z,76.66
2023-02-18T04:51:14.030Z,76.21
2023-02-18T04:52:17.075Z,76.03
2023-02-18T04:53:19.011Z,76.14
2023-02-18T04:54:23.394Z,76.56
2023-02-18T04:55:25.355Z,76.16
2023-02-18T04:56:28.237Z,76.00
2023-02-18T04:57:30.163Z,76.15
2023-02-18T04:58:33.070Z,76.93
2023-02-18T04:59:35.020Z,76.19
2023-02-18T05:00:37.907Z,76.29
2023-02-18T05:01:39.936Z,75.73
2023-02-18T05:02:43.208Z,76.00
2023-02-18T05:03:46.111Z,76.83
2023-02-18T05:04:49.088Z,75.92
2023-02-18T05:05:50.953Z,76.18
2023-02-18T05:06:53.888Z,76.89
2023-02-18T05:07:55.782Z,76.04
2023-02-18T05:08:58.715Z,76.65
2023-02-18T05:10:02.200Z,76.05
2023-02-18T05:11:07.566Z,75.83
2023-02-18T05:12:09.459Z,75.70
2023-02-18T05:13:12.387Z,76.74
2023-02-18T05:14:14.781Z,75.96
2023-02-18T05:15:17.674Z,76.47
2023-02-18T05:16:19.573Z,76.62
2023-02-18T05:17:22.453Z,76.61
2023-02-18T05:18:25.362Z,76.59
2023-02-18T05:19:27.338Z,76.63
2023-02-18T05:20:30.610Z,76.04
2023-02-18T05:21:33.015Z,75.40
2023-02-18T05:22:35.923Z,76.17
2023-02-18T05:23:38.117Z,76.43
2023-02-18T05:24:41.204Z,75.75
2023-02-18T05:25:44.537Z,76.18
2023-02-18T05:26:47.538Z,76.46
2023-02-18T05:27:49.590Z,75.44
2023-02-18T05:28:52.584Z,75.39
2023-02-18T05:29:54.497Z,75.71
2023-02-18T05:30:58.950Z,76.17
2023-02-18T05:32:00.952Z,75.84
2023-02-18T05:33:03.907Z,76.24
2023-02-18T05:34:05.864Z,75.88
2023-02-18T05:35:09.371Z,76.00
2023-02-18T05:36:11.303Z,75.90
2023-02-18T05:37:14.367Z,76.20
2023-02-18T05:38:16.344Z,75.62
2023-02-18T05:39:19.612Z,75.90
2023-02-18T05:40:21.664Z,75.64
2023-02-18T05:41:25.890Z,75.82
2023-02-18T05:42:27.812Z,75.35
2023-02-18T05:43:30.742Z,75.99
2023-02-18T05:44:33.504Z,76.06
2023-02-18T05:45:36.944Z,75.11
2023-02-18T05:46:38.902Z,75.19
2023-02-18T05:47:41.921Z,75.11
2023-02-18T05:48:43.848Z,76.16
2023-02-18T05:49:46.739Z,75.30
2023-02-18T05:50:48.638Z,76.08
2023-02-18T05:51:51.584Z,76.04
2023-02-18T05:52:53.571Z,75.27
2023-02-18T05:53:56.710Z,76.03
2023-02-18T05:54:58.646Z,75.15
2023-02-18T05:56:01.573Z,75.09
2023-02-18T05:57:05.089Z,75.13
2023-02-18T05:58:08.073Z,75.32
2023-02-18T05:59:09.975Z,75.25
2023-02-18T06:00:13.958Z,75.67
2023-02-18T06:01:15.981Z,75.57
2023-02-18T06:02:18.915Z,75.32
2023-02-18T06:03:20.873Z,75.66
2023-02-18T06:04:23.805Z,74.79
2023-02-18T06:05:25.878Z,75.36
2023-02-18T06:06:28.847Z,75.03
2023-02-18T06:07:30.791Z,75.45
2023-02-18T06:08:33.731Z,75.54
2023-02-18T06:09:36.886Z,75.46
2023-02-18T06:10:40.400Z,75.31
2023-02-18T06:11:43.432Z,75.28
2023-02-18T06:12:46.745Z,75.22
2023-02-18T06:13:49.712Z,74.59
2023-02-18T06:14:52.691Z,75.17
2023-02-18T06:15:55.099Z,75.76
2023-02-18T06:16:58.161Z,74.53
2023-02-18T06:18:00.142Z,75.04
2023-02-18T06:19:03.060Z,74.79
2023-02-18T06:20:06.071Z,75.07
2023-02-18T06:21:09.071Z,75.33
2023-02-18T06:22:11.397Z,75.18
2023-02-18T06:23:14.632Z,75.60
2023-02-18T06:24:17.270Z,74.80
2023-02-18T06:25:20.182Z,75.26
2023-02-18T06:26:22.140Z,74.51
2023-02-18T06:27:25.063Z,74.47
2023-02-18T06:28:28.443Z,74.24
2023-02-18T06:29:32.162Z,74.92
2023-02-18T06:30:34.190Z,75.11
2023-02-18T06:31:37.224Z,74.74
2023-02-18T06:32:39.230Z,74.67
2023-02-18T06:33:42.173Z,74.92
2023-02-18T06:34:44.174Z,75.18
2023-02-18T06:35:55.235Z,74.26
2023-02-18T06:36:57.188Z,74.39
2023-02-18T06:38:00.430Z,74.92
2023-02-18T06:39:04.032Z,74.62
2023-02-18T06:40:08.314Z,75.04
2023-02-18T06:41:11.559Z,74.06
2023-02-18T06:42:14.420Z,74.38
2023-02-18T06:43:16.527Z,75.21
2023-02-18T06:44:20.946Z,74.97
2023-02-18T06:45:22.913Z,74.49
2023-02-18T06:46:26.801Z,74.63
2023-02-18T06:47:28.764Z,74.59
2023-02-18T06:48:32.143Z,74.43
2023-02-18T06:49:36.398Z,74.87
2023-02-18T06:50:40.214Z,74.67
2023-02-18T06:51:44.176Z,73.73
2023-02-18T06:52:46.090Z,74.59
2023-02-18T06:53:48.977Z,74.20
2023-02-18T06:54:50.916Z,73.74
2023-02-18T06:55:53.955Z,74.76
2023-02-18T06:56:55.900Z,74.45
2023-02-18T06:57:58.838Z,74.12
2023-02-18T06:59:00.760Z,73.93
2023-02-18T07:00:06.166Z,74.28
2023-02-18T07:01:08.404Z,73.58
2023-02-18T07:02:12.130Z,73.44
2023-02-18T07:03:14.927Z,74.21
2023-02-18T07:04:18.340Z,74.76
2023-02-18T07:05:20.264Z,74.25
2023-02-18T07:06:23.331Z,74.38
2023-02-18T07:07:25.327Z,74.40
2023-02-18T07:08:30.736Z,74.49
2023-02-18T07:09:33.666Z,74.19
2023-02-18T07:10:35.805Z,74.51
2023-02-18T07:11:38.758Z,73.94
2023-02-18T07:12:40.688Z,74.44
2023-02-18T07:13:43.579Z,74.14
2023-02-18T07:14:45.536Z,74.24
2023-02-18T07:15:49.876Z,74.40
2023-02-18T07:16:51.747Z,73.58
2023-02-18T07:17:55.370Z,74.04
2023-02-18T07:18:57.297Z,73.95
2023-02-18T07:20:00.941Z,74.13
2023-02-18T07:21:03.085Z,74.10
2023-02-18T07:22:05.976Z,73.91
2023-02-18T07:23:07.911Z,73.61
2023-02-18T07:24:10.800Z,72.96
2023-02-18T07:25:13.245Z,73.70
2023-02-18T07:26:16.371Z,73.42
2023-02-18T07:27:18.407Z,73.73
2023-02-18T07:28:21.330Z,74.02
2023-02-18T07:29:23.228Z,73.62
2023-02-18T07:30:26.304Z,73.29
2023-02-18T07:31:29.715Z,73.15
2023-02-18T07:32:32.735Z,73.64
2023-02-18T07:33:34.938Z,73.29
2023-02-18T07:34:37.907Z,73.32
2023-02-18T07:35:39.821Z,72.93
2023-02-18T07:36:42.726Z,73.55
2023-02-18T07:37:45.749Z,73.92
2023-02-18T07:38:48.658Z,73.68
2023-02-18T07:39:50.624Z,73.48
2023-02-18T07:40:54.344Z,73.27
2023-02-18T07:41:56.246Z,73.39
2023-02-18T07:43:00.270Z,72.83
2023-02-18T07:44:02.207Z,73.83
2023-02-18T07:45:05.611Z,72.86
2023-02-18T07:46:08.151Z,72.82
2023-02-18T07:47:15.644Z,73.02
2023-02-18T07:48:17.684Z,73.89
2023-02-18T07:49:20.521Z,73.70
2023-02-18T07:50:22.424Z,73.35
2023-02-18T07:51:25.377Z,72.94
2023-02-18T07:52:27.264Z,73.79
2023-02-18T07:53:30.146Z,73.26
2023-02-18T07:54:32.064Z,73.70
2023-02-18T07:55:48.870Z,73.10
2023-02-18T07:56:51.866Z,73.77
2023-02-18T07:58:01.056Z,73.68
2023-02-18T07:59:04.478Z,73.53
2023-02-18T08:00:08.052Z,73.20
2023-02-18T08:01:16.817Z,72.98
2023-02-18T08:02:23.845Z,72.98
2023-02-18T08:03:28.803Z,72.82
2023-02-18T08:04:30.765Z,72.58
2023-02-18T08:05:33.794Z,73.63
2023-02-18T08:06:39.149Z,73.26
2023-02-18T08:07:41.130Z,72.71
2023-02-18T08:08:44.013Z,72.88
2023-02-18T08:09:45.976Z,73.22
2023-02-18T08:10:49.482Z,72.71
2023-02-18T08:11:51.327Z,72.31
2023-02-18T08:12:54.207Z,72.18
2023-02-18T08:13:56.117Z,72.88
2023-02-18T08:14:59.074Z,72.80
2023-02-18T08:16:01.019Z,72.32
2023-02-18T08:17:03.979Z,72.26
2023-02-18T08:18:09.292Z,72.11
2023-02-18T08:19:12.223Z,71.77
2023-02-18T08:20:14.248Z,71.52
2023-02-18T08:21:18.385Z,71.97
2023-02-18T08:22:20.336Z,71.93
2023-02-18T08:23:25.725Z,70.84
2023-02-18T08:24:28.678Z,71.06
2023-02-18T08:25:30.587Z,70.88
2023-02-18T08:26:33.476Z,71.12
2023-02-18T08:27:35.382Z,70.91
2023-02-18T08:28:38.341Z,71.13
2023-02-18T08:29:40.214Z,71.79
2023-02-18T08:30:46.148Z,71.09
2023-02-18T08:31:48.330Z,71.01
2023-02-18T08:32:51.501Z,71.56
2023-02-18T08:33:55.984Z,71.66
2023-02-18T08:34:58.903Z,71.59
2023-02-18T08:36:00.907Z,70.92
2023-02-18T08:37:03.966Z,71.99
2023-02-18T08:38:06.021Z,70.91
2023-02-18T08:39:08.930Z,71.30
2023-02-18T08:40:12.348Z,71.69
2023-02-18T08:41:16.034Z,72.05
2023-02-18T08:42:17.977Z,71.86
2023-02-18T08:43:20.928Z,72.25
2023-02-18T08:44:23.784Z,71.49
2023-02-18T08:45:25.817Z,71.58
2023-02-18T08:46:34.010Z,72.31
2023-02-18T08:48:19.375Z,71.70
2023-02-18T08:49:03.559Z,72.41
2023-02-18T08:50:06.127Z,72.31
2023-02-18T08:51:14.068Z,72.45
2023-02-18T08:52:16.073Z,72.17
2023-02-18T08:53:19.361Z,72.87
2023-02-18T08:54:21.278Z,71.70
2023-02-18T08:55:25.077Z,72.06
2023-02-18T08:56:27.062Z,72.17
2023-02-18T08:57:29.999Z,72.05
2023-02-18T08:58:31.913Z,72.51
2023-02-18T08:59:34.724Z,72.69
2023-02-18T09:00:38.713Z,71.53
2023-02-18T09:01:41.661Z,72.52
2023-02-18T09:02:43.680Z,72.29
2023-02-18T09:03:46.815Z,72.29
2023-02-18T09:04:50.176Z,71.33
2023-02-18T09:05:53.093Z,72.20
2023-02-18T09:06:56.064Z,72.52
2023-02-18T09:07:58.114Z,72.28
2023-02-18T09:09:01.055Z,72.19
2023-02-18T09:10:03.661Z,70.95
2023-02-18T09:11:08.162Z,71.83
2023-02-18T09:12:10.371Z,71.37
2023-02-18T09:13:13.301Z,71.30
2023-02-18T09:14:15.339Z,70.99
2023-02-18T09:15:18.854Z,71.92
2023-02-18T09:16:21.889Z,71.12
2023-02-18T09:17:23.829Z,70.99
2023-02-18T09:18:26.881Z,70.56
2023-02-18T09:19:30.123Z,71.56
2023-02-18T09:20:33.390Z,71.37
2023-02-18T09:21:36.362Z,70.88
2023-02-18T09:22:38.982Z,71.68
2023-02-18T09:23:41.976Z,71.41
2023-02-18T09:24:43.964Z,71.82
2023-02-18T09:25:46.898Z,71.18
2023-02-18T09:26:49.793Z,71.22
2023-02-18T09:27:52.689Z,71.11
2023-02-18T09:28:57.309Z,71.20
2023-02-18T09:29:59.326Z,71.30
2023-02-18T09:31:06.466Z,72.17
2023-02-18T09:32:09.604Z,71.75
2023-02-18T09:33:12.601Z,72.22
2023-02-18T09:34:15.528Z,71.44
2023-02-18T09:35:17.784Z,71.93
2023-02-18T09:36:22.092Z,71.31
2023-02-18T09:37:24.004Z,71.88
2023-02-18T09:38:26.975Z,72.08
2023-02-18T09:39:29.156Z,71.27
2023-02-18T09:40:34.805Z,71.81
2023-02-18T09:41:42.898Z,71.70
2023-02-18T09:42:45.111Z,72.16
2023-02-18T09:43:50.897Z,71.65
2023-02-18T09:44:55.895Z,71.92
2023-02-18T09:46:00.794Z,71.66
2023-02-18T09:47:06.261Z,72.35
2023-02-18T09:48:10.159Z,71.66
2023-02-18T09:49:18.589Z,72.21
2023-02-18T09:50:24.450Z,72.39
2023-02-18T09:51:28.701Z,71.57
2023-02-18T09:52:33.855Z,73.01
2023-02-18T09:53:38.215Z,71.69
2023-02-18T09:54:40.678Z,72.57
2023-02-18T09:55:46.288Z,72.18
2023-02-18T09:56:49.466Z,71.32
2023-02-18T09:57:54.608Z,71.05
2023-02-18T09:58:59.709Z,70.89
2023-02-18T10:00:06.378Z,71.40
2023-02-18T10:01:20.401Z,70.78
2023-02-18T10:02:25.397Z,70.98
2023-02-18T10:03:27.622Z,71.50
2023-02-18T10:04:36.759Z,71.16
2023-02-18T10:05:43.837Z,70.96
2023-02-18T10:06:48.940Z,71.74
2023-02-18T10:07:55.146Z,71.31
2023-02-18T10:09:01.370Z,71.06
2023-02-18T10:10:17.163Z,70.84
2023-02-18T10:11:25.645Z,70.01
2023-02-18T10:12:28.660Z,69.51
2023-02-18T10:13:33.172Z,71.01
2023-02-18T10:14:36.216Z,71.09
2023-02-18T10:15:38.749Z,69.99
2023-02-18T10:16:41.849Z,70.98
2023-02-18T10:17:45.536Z,70.32
2023-02-18T10:18:51.861Z,70.42
2023-02-18T10:19:57.111Z,71.01
2023-02-18T10:21:07.802Z,70.83
2023-02-18T10:22:15.290Z,71.39
2023-02-18T10:23:19.518Z,70.46
2023-02-18T10:24:29.801Z,71.01
2023-02-18T10:25:34.271Z,70.78
2023-02-18T10:26:38.997Z,70.14
2023-02-18T10:27:41.242Z,69.69
2023-02-18T10:28:45.334Z,71.04
2023-02-18T10:29:47.261Z,69.99
2023-02-18T10:30:58.322Z,70.21
2023-02-18T10:32:08.864Z,71.18
2023-02-18T10:33:28.186Z,69.62
2023-02-18T10:34:42.299Z,70.23
2023-02-18T10:35:52.686Z,71.07
2023-02-18T10:36:59.011Z,71.19
2023-02-18T10:38:13.464Z,70.82
2023-02-18T10:39:40.963Z,70.78
2023-02-18T10:40:59.695Z,70.54
2023-02-18T10:42:14.623Z,70.57
2023-02-18T10:43:27.596Z,70.83
2023-02-18T10:44:40.388Z,70.99
2023-02-18T10:45:52.974Z,70.22
2023-02-18T10:47:07.195Z,69.87
2023-02-18T10:48:25.691Z,70.64
2023-02-18T10:49:49.781Z,71.09
2023-02-18T10:50:52.823Z,70.03
2023-02-18T10:51:58.164Z,69.81
2023-02-18T10:53:09.823Z,70.61
2023-02-18T10:54:14.997Z,70.07
2023-02-18T10:55:19.129Z,69.19
2023-02-18T10:56:36.097Z,68.93
2023-02-18T10:57:47.559Z,69.81
2023-02-18T10:58:50.751Z,68.99
2023-02-18T10:59:58.195Z,69.47
2023-02-18T11:01:05.043Z,69.77
2023-02-18T11:02:17.551Z,69.88
2023-02-18T11:03:23.047Z,68.99
2023-02-18T11:04:29.355Z,70.46
2023-02-18T11:05:36.099Z,70.20
2023-02-18T11:06:42.060Z,69.52
2023-02-18T11:07:48.665Z,68.70
2023-02-18T11:08:56.048Z,68.52
2023-02-18T11:10:00.771Z,68.49
2023-02-18T11:11:13.522Z,68.57
2023-02-18T11:12:20.328Z,68.27
2023-02-18T11:13:28.279Z,68.94
2023-02-18T11:14:43.051Z,67.87
2023-02-18T11:15:58.560Z,67.40
2023-02-18T11:17:09.871Z,67.36
2023-02-18T11:18:16.294Z,66.69
2023-02-18T11:19:34.193Z,67.10
2023-02-18T11:20:38.911Z,67.55
2023-02-18T11:21:42.315Z,67.26
2023-02-18T11:22:44.705Z,67.89
2023-02-18T11:23:50.208Z,67.85
2023-02-18T11:24:59.606Z,67.56
2023-02-18T11:26:04.847Z,67.53
2023-02-18T11:27:11.405Z,67.16
2023-02-18T11:28:30.312Z,66.78
2023-02-18T11:29:34.337Z,66.80
2023-02-18T11:30:39.981Z,67.39
2023-02-18T11:31:46.983Z,67.93
2023-02-18T11:32:51.897Z,67.17
2023-02-18T11:33:59.346Z,66.93
2023-02-18T11:35:02.416Z,67.52
2023-02-18T11:36:19.485Z,67.27
2023-02-18T11:37:23.745Z,66.92
2023-02-18T11:38:29.269Z,67.14
2023-02-18T11:39:32.347Z,66.67
2023-02-18T11:40:38.064Z,67.15
2023-02-18T11:41:42.619Z,66.05
2023-02-18T11:42:45.589Z,66.37
2023-02-18T11:43:50.144Z,67.06
2023-02-18T11:44:56.356Z,67.50
2023-02-18T11:46:10.943Z,66.11
2023-02-18T11:47:23.755Z,66.56
2023-02-18T11:48:25.842Z,67.64
2023-02-18T11:49:30.814Z,66.64
2023-02-18T11:50:34.347Z,66.92
2023-02-18T11:51:40.996Z,66.47
2023-02-18T11:52:45.350Z,66.66
2023-02-18T11:54:01.187Z,66.85
2023-02-18T11:55:07.476Z,66.74
2023-02-18T11:56:19.218Z,66.80
2023-02-18T11:57:26.386Z,65.27
2023-02-18T11:58:38.062Z,66.40
2023-02-18T11:59:42.975Z,66.41
2023-02-18T12:00:47.625Z,65.89
2023-02-18T12:01:53.113Z,65.41
2023-02-18T12:02:59.564Z,65.34
2023-02-18T12:04:08.640Z,65.31
2023-02-18T12:05:17.261Z,66.05
2023-02-18T12:06:24.937Z,65.53
2023-02-18T12:07:32.629Z,64.95
2023-02-18T12:08:40.891Z,65.47
2023-02-18T12:09:47.535Z,65.47
2023-02-18T12:10:52.955Z,65.54
2023-02-18T12:12:00.823Z,65.64
2023-02-18T12:13:08.099Z,65.65
2023-02-18T12:14:18.517Z,66.15
2023-02-18T12:15:28.697Z,65.96
2023-02-18T12:16:39.529Z,65.82
2023-02-18T12:18:06.042Z,65.56
2023-02-18T12:19:26.822Z,66.27
2023-02-18T12:20:55.777Z,65.99
2023-02-18T12:22:04.061Z,66.04
2023-02-18T12:23:18.090Z,65.85
2023-02-18T12:24:38.080Z,65.34
2023-02-18T12:25:48.626Z,65.83
2023-02-18T12:27:01.020Z,64.85
2023-02-18T12:28:19.302Z,64.91
2023-02-18T12:29:42.262Z,65.44
2023-02-18T12:31:02.926Z,66.30
2023-02-18T12:32:22.476Z,65.15
2023-02-18T12:33:37.149Z,65.30
2023-02-18T12:34:56.518Z,65.74
2023-02-18T12:36:08.518Z,65.59
2023-02-18T12:37:32.111Z,64.56
2023-02-18T12:38:55.693Z,64.45
2023-02-18T12:40:10.146Z,64.39
2023-02-18T12:41:27.182Z,65.44
2023-02-18T12:42:44.846Z,65.38
2023-02-18T12:43:56.120Z,65.61
2023-02-18T12:45:14.297Z,65.56
2023-02-18T12:46:34.362Z,66.07
2023-02-18T12:48:07.239Z,65.94
2023-02-18T12:49:27.631Z,65.58
2023-02-18T12:50:54.849Z,66.07
2023-02-18T12:52:17.381Z,66.46
2023-02-18T12:53:42.831Z,66.60
2023-02-18T12:55:10.124Z,66.48
2023-02-18T12:56:32.860Z,65.92
2023-02-18T12:57:44.273Z,65.72
2023-02-18T12:58:56.041Z,66.19
2023-02-18T13:00:32.471Z,66.28
2023-02-18T13:01:44.604Z,65.32
2023-02-18T13:03:23.528Z,65.03
2023-02-18T13:04:36.895Z,65.70
2023-02-18T13:05:44.253Z,66.00
2023-02-18T13:07:17.027Z,65.17
2023-02-18T13:08:36.049Z,64.39
2023-02-18T13:09:54.585Z,64.40
2023-02-18T13:11:17.332Z,64.74
2023-02-18T13:12:25.129Z,64.79
2023-02-18T13:13:34.380Z,65.20
2023-02-18T13:14:47.410Z,64.89
2023-02-18T13:15:55.326Z,64.26
2023-02-18T13:17:01.329Z,65.21
2023-02-18T13:18:13.121Z,64.83
2023-02-18T13:19:22.723Z,65.12
2023-02-18T13:20:33.558Z,66.51
2023-02-18T13:21:39.451Z,65.47
2023-02-18T13:22:41.810Z,65.09
2023-02-18T13:23:54.288Z,64.94
2023-02-18T13:24:59.659Z,64.24
2023-02-18T13:26:05.599Z,65.00
2023-02-18T13:27:22.028Z,65.35
2023-02-18T13:28:28.836Z,64.84
2023-02-18T13:29:38.963Z,64.92
2023-02-18T13:30:46.494Z,64.62
2023-02-18T13:31:58.173Z,65.19
2023-02-18T13:33:12.511Z,65.39
2023-02-18T13:34:24.791Z,65.13
2023-02-18T13:35:35.289Z,65.39
2023-02-18T13:36:47.864Z,64.76
2023-02-18T13:38:02.984Z,64.78
2023-02-18T13:39:08.744Z,65.78
2023-02-18T13:40:18.441Z,65.18
2023-02-18T13:41:22.250Z,65.23
2023-02-18T13:42:36.247Z,66.73
2023-02-18T13:43:38.811Z,64.49
2023-02-18T13:45:08.767Z,65.12
2023-02-18T13:46:14.520Z,65.47
2023-02-18T13:47:37.005Z,65.70
2023-02-18T13:48:45.951Z,65.50
2023-02-18T13:49:48.934Z,65.43
2023-02-18T13:50:55.175Z,64.64
2023-02-18T13:52:01.296Z,64.92
2023-02-18T13:53:19.916Z,63.98
2023-02-18T13:54:27.368Z,64.38
2023-02-18T13:55:39.599Z,64.57
2023-02-18T13:56:45.574Z,64.20
2023-02-18T13:57:49.791Z,64.79
2023-02-18T13:58:56.377Z,64.87
2023-02-18T14:00:06.357Z,64.57
2023-02-18T14:01:20.759Z,63.51
2023-02-18T14:02:33.582Z,63.77
2023-02-18T14:03:51.293Z,63.91
2023-02-18T14:04:55.372Z,64.29
2023-02-18T14:05:57.477Z,64.06
2023-02-18T14:07:28.108Z,64.15
2023-02-18T14:08:33.428Z,64.04
2023-02-18T14:09:41.065Z,63.33
2023-02-18T14:11:04.174Z,64.44
2023-02-18T14:12:25.945Z,63.77
2023-02-18T14:13:41.955Z,65.40
2023-02-18T14:14:44.483Z,63.88
2023-02-18T14:15:59.515Z,64.02